Portada
METAR-TAF:

METAR-TAF

Aeroports :

Aeroport Internacional de Nador

Nador, Marroc

latitud: 34-59-20N, longitud: 003-01-42W, altitud: 175 m

Observació

L'informe es va fer fa 24 minuts, a les 17:00 UTC
Vent 11 kt del Nord-Oest
Temperatura 20°C
Humitat 40%
Pressió 1019 hPa
Visibilitat 10 km o més
sense núvols per sota de 1500 mi sense presència de cumulonimbus.

METAR: GMMW 261700Z 31011KT CAVOK 20/06 Q1019 NOSIG

Hora: 18:24 (17:24 UTC)

Pronòstic

L'informe es va fer fa 6 hores i 24 minuts, a les 11:00 UTC
Pronòstic vàlid del 26 a les 12 UTC al 27 a les 18 UTC
Vent 9 kt del Nord
Visibilitat 10 km o més
sense núvols per sota de 1500 mi sense presència de cumulonimbus.

TAF: GMMW 261100Z 2612/2718 36009KT CAVOK

Observacions i pronòstics meteorològics de més de 4000 aeroports (METAR i TAF).

Les estacions disponibles són els punts grocs i vermells al mapa.

Posi el ratolí al punt desitjat per veure el nom de l'estació.

Feu clic per veure les observacions i els pronòstics meteorològics.

Per canviar el mapa: feu clic els botons verds amb una creu de color negre per apropar; al botó verd amb un guió per allunyar la imatge; o en les fletxes verdes per a mapes adjacents.


METAR-TAF: